sensor_id;sensor_type;location;lat;lon;timestamp;pressure;altitude;pressure_sealevel;temperature;humidity
72892;BME280;61032;50.782;6.818;2023-03-03T00:00:37;101058.88;;;2.88;67.60
72892;BME280;61032;50.782;6.818;2023-03-03T00:01:37;101058.88;;;2.88;67.21
72892;BME280;61032;50.782;6.818;2023-03-03T00:02:38;101056.13;;;2.83;67.44
72892;BME280;61032;50.782;6.818;2023-03-03T00:03:38;101063.69;;;2.75;67.87
72892;BME280;61032;50.782;6.818;2023-03-03T00:04:39;101059.31;;;2.64;68.79
72892;BME280;61032;50.782;6.818;2023-03-03T00:05:39;101067.47;;;2.64;68.12
72892;BME280;61032;50.782;6.818;2023-03-03T00:06:39;101073.47;;;2.76;68.52
72892;BME280;61032;50.782;6.818;2023-03-03T00:07:43;101064.00;;;2.79;67.85
72892;BME280;61032;50.782;6.818;2023-03-03T00:08:43;101073.84;;;2.90;68.08
72892;BME280;61032;50.782;6.818;2023-03-03T00:09:43;101071.38;;;2.89;67.82
72892;BME280;61032;50.782;6.818;2023-03-03T00:10:44;101081.47;;;3.03;67.43
72892;BME280;61032;50.782;6.818;2023-03-03T00:11:47;101076.31;;;3.02;67.84
72892;BME280;61032;50.782;6.818;2023-03-03T00:12:49;101073.34;;;3.08;67.38
72892;BME280;61032;50.782;6.818;2023-03-03T00:13:52;101084.22;;;3.08;67.92
72892;BME280;61032;50.782;6.818;2023-03-03T00:14:52;101080.09;;;3.01;67.44
72892;BME280;61032;50.782;6.818;2023-03-03T00:16:07;101079.81;;;2.97;67.34
72892;BME280;61032;50.782;6.818;2023-03-03T00:17:24;101076.81;;;2.94;67.45
72892;BME280;61032;50.782;6.818;2023-03-03T00:18:29;101083.31;;;2.88;67.50
72892;BME280;61032;50.782;6.818;2023-03-03T00:19:37;101080.50;;;2.72;67.62
72892;BME280;61032;50.782;6.818;2023-03-03T00:20:38;101081.03;;;2.64;68.03
72892;BME280;61032;50.782;6.818;2023-03-03T00:21:41;101089.19;;;2.69;68.88
72892;BME280;61032;50.782;6.818;2023-03-03T00:22:41;101087.59;;;2.79;68.24
72892;BME280;61032;50.782;6.818;2023-03-03T00:23:42;101084.38;;;2.82;68.88
72892;BME280;61032;50.782;6.818;2023-03-03T00:24:42;101085.94;;;2.72;69.21
72892;BME280;61032;50.782;6.818;2023-03-03T00:25:44;101092.72;;;2.70;68.97
72892;BME280;61032;50.782;6.818;2023-03-03T00:27:51;101087.31;;;2.70;68.05
72892;BME280;61032;50.782;6.818;2023-03-03T00:28:52;101088.06;;;2.60;67.10
72892;BME280;61032;50.782;6.818;2023-03-03T00:29:57;101089.03;;;2.44;67.70
72892;BME280;61032;50.782;6.818;2023-03-03T00:31:00;101093.31;;;2.35;67.67
72892;BME280;61032;50.782;6.818;2023-03-03T00:33:42;101090.69;;;2.45;67.19
72892;BME280;61032;50.782;6.818;2023-03-03T00:34:45;101085.22;;;2.40;66.71
72892;BME280;61032;50.782;6.818;2023-03-03T00:35:45;101091.91;;;2.27;67.70
72892;BME280;61032;50.782;6.818;2023-03-03T00:36:52;101089.75;;;2.29;67.80
72892;BME280;61032;50.782;6.818;2023-03-03T00:37:56;101091.63;;;2.24;68.62
72892;BME280;61032;50.782;6.818;2023-03-03T00:39:21;101089.75;;;2.29;67.75
72892;BME280;61032;50.782;6.818;2023-03-03T00:40:31;101091.19;;;2.42;67.35
72892;BME280;61032;50.782;6.818;2023-03-03T00:41:34;101081.16;;;2.42;67.83
72892;BME280;61032;50.782;6.818;2023-03-03T00:42:36;101090.03;;;2.33;67.67
72892;BME280;61032;50.782;6.818;2023-03-03T00:43:36;101083.50;;;2.29;68.37
72892;BME280;61032;50.782;6.818;2023-03-03T00:45:56;101083.47;;;2.24;68.42
72892;BME280;61032;50.782;6.818;2023-03-03T00:47:01;101080.78;;;2.29;68.88
72892;BME280;61032;50.782;6.818;2023-03-03T00:48:26;101083.53;;;2.34;68.52
72892;BME280;61032;50.782;6.818;2023-03-03T00:49:26;101085.94;;;2.25;68.08
72892;BME280;61032;50.782;6.818;2023-03-03T00:51:30;101091.91;;;2.27;68.93
72892;BME280;61032;50.782;6.818;2023-03-03T00:52:35;101087.31;;;2.28;68.53
72892;BME280;61032;50.782;6.818;2023-03-03T00:53:36;101087.88;;;2.35;69.25
72892;BME280;61032;50.782;6.818;2023-03-03T00:54:36;101087.88;;;2.35;69.23
72892;BME280;61032;50.782;6.818;2023-03-03T00:55:36;101089.03;;;2.44;68.98
72892;BME280;61032;50.782;6.818;2023-03-03T00:56:37;101090.66;;;2.40;68.42
72892;BME280;61032;50.782;6.818;2023-03-03T00:57:38;101090.66;;;2.40;68.39
72892;BME280;61032;50.782;6.818;2023-03-03T00:58:38;101089.03;;;2.44;67.96
72892;BME280;61032;50.782;6.818;2023-03-03T00:59:39;101091.69;;;2.34;68.36
72892;BME280;61032;50.782;6.818;2023-03-03T01:00:39;101096.47;;;2.22;69.21
72892;BME280;61032;50.782;6.818;2023-03-03T01:01:40;101095.41;;;2.23;69.05
72892;BME280;61032;50.782;6.818;2023-03-03T01:02:40;101093.97;;;2.15;68.80
72892;BME280;61032;50.782;6.818;2023-03-03T01:03:41;101095.88;;;2.15;69.19
72892;BME280;61032;50.782;6.818;2023-03-03T01:04:43;101095.25;;;2.02;69.37
72892;BME280;61032;50.782;6.818;2023-03-03T01:05:48;101099.09;;;2.12;69.29
72892;BME280;61032;50.782;6.818;2023-03-03T01:06:48;101092.84;;;2.06;69.95
72892;BME280;61032;50.782;6.818;2023-03-03T01:07:49;101102.50;;;1.97;69.77
72892;BME280;61032;50.782;6.818;2023-03-03T01:08:49;101103.94;;;2.04;70.27
72892;BME280;61032;50.782;6.818;2023-03-03T01:09:49;101100.06;;;1.95;69.74
72892;BME280;61032;50.782;6.818;2023-03-03T01:10:53;101097.03;;;1.87;70.13
72892;BME280;61032;50.782;6.818;2023-03-03T01:11:53;101103.53;;;1.91;69.80
72892;BME280;61032;50.782;6.818;2023-03-03T01:12:54;101091.97;;;2.00;69.44
72892;BME280;61032;50.782;6.818;2023-03-03T01:13:55;101100.53;;;2.19;68.94
72892;BME280;61032;50.782;6.818;2023-03-03T01:14:56;101101.31;;;2.15;69.53
72892;BME280;61032;50.782;6.818;2023-03-03T01:15:57;101100.75;;;2.13;69.52
72892;BME280;61032;50.782;6.818;2023-03-03T01:16:58;101099.16;;;2.17;69.58
72892;BME280;61032;50.782;6.818;2023-03-03T01:17:58;101101.34;;;2.20;69.54
72892;BME280;61032;50.782;6.818;2023-03-03T01:18:59;101108.56;;;2.09;69.23
72892;BME280;61032;50.782;6.818;2023-03-03T01:20:00;101102.06;;;2.05;69.43
72892;BME280;61032;50.782;6.818;2023-03-03T01:21:00;101101.81;;;2.12;69.52
72892;BME280;61032;50.782;6.818;2023-03-03T01:22:01;101105.28;;;2.02;68.40
72892;BME280;61032;50.782;6.818;2023-03-03T01:23:02;101103.63;;;2.01;68.92
72892;BME280;61032;50.782;6.818;2023-03-03T01:24:02;101092.59;;;2.08;68.35
72892;BME280;61032;50.782;6.818;2023-03-03T01:25:03;101093.13;;;2.10;68.68
72892;BME280;61032;50.782;6.818;2023-03-03T01:26:04;101082.53;;;2.08;68.45
72892;BME280;61032;50.782;6.818;2023-03-03T01:27:04;101095.09;;;2.19;69.20
72892;BME280;61032;50.782;6.818;2023-03-03T01:28:05;101091.00;;;2.17;69.61
72892;BME280;61032;50.782;6.818;2023-03-03T01:29:05;101090.75;;;2.18;69.59
72892;BME280;61032;50.782;6.818;2023-03-03T01:30:06;101096.44;;;2.17;70.17
72892;BME280;61032;50.782;6.818;2023-03-03T01:31:07;101094.28;;;2.19;70.07
72892;BME280;61032;50.782;6.818;2023-03-03T01:32:07;101092.09;;;2.16;68.91
72892;BME280;61032;50.782;6.818;2023-03-03T01:33:08;101095.41;;;2.23;69.69
72892;BME280;61032;50.782;6.818;2023-03-03T01:34:08;101098.59;;;2.15;70.15
72892;BME280;61032;50.782;6.818;2023-03-03T01:35:09;101089.59;;;2.09;71.07
72892;BME280;61032;50.782;6.818;2023-03-03T01:36:09;101094.84;;;1.89;70.04
72892;BME280;61032;50.782;6.818;2023-03-03T01:37:10;101098.34;;;1.84;70.70
72892;BME280;61032;50.782;6.818;2023-03-03T01:38:10;101095.59;;;1.79;69.95
72892;BME280;61032;50.782;6.818;2023-03-03T01:39:10;101090.88;;;1.69;69.69
72892;BME280;61032;50.782;6.818;2023-03-03T01:40:17;101095.19;;;1.65;69.79
72892;BME280;61032;50.782;6.818;2023-03-03T01:41:18;101102.03;;;1.73;69.81
72892;BME280;61032;50.782;6.818;2023-03-03T01:42:19;101108.25;;;1.73;68.76
72892;BME280;61032;50.782;6.818;2023-03-03T01:43:20;101106.38;;;1.74;69.11
72892;BME280;61032;50.782;6.818;2023-03-03T01:44:21;101106.88;;;1.71;69.27
72892;BME280;61032;50.782;6.818;2023-03-03T01:45:29;101104.59;;;1.58;69.43
72892;BME280;61032;50.782;6.818;2023-03-03T01:46:46;101108.81;;;1.49;70.82
72892;BME280;61032;50.782;6.818;2023-03-03T01:47:52;101106.06;;;1.44;70.85
72892;BME280;61032;50.782;6.818;2023-03-03T01:49:06;101101.81;;;1.53;69.89
72892;BME280;61032;50.782;6.818;2023-03-03T01:50:13;101099.63;;;1.50;70.38
72892;BME280;61032;50.782;6.818;2023-03-03T01:51:27;101103.91;;;1.46;70.37
72892;BME280;61032;50.782;6.818;2023-03-03T01:52:45;101108.81;;;1.49;70.66
72892;BME280;61032;50.782;6.818;2023-03-03T01:53:52;101109.63;;;1.49;70.08
72892;BME280;61032;50.782;6.818;2023-03-03T01:54:57;101105.22;;;1.65;70.77
72892;BME280;61032;50.782;6.818;2023-03-03T01:56:00;101109.09;;;1.74;71.58
72892;BME280;61032;50.782;6.818;2023-03-03T01:57:04;101109.94;;;1.80;71.69
72892;BME280;61032;50.782;6.818;2023-03-03T01:58:17;101105.41;;;1.85;71.30
72892;BME280;61032;50.782;6.818;2023-03-03T01:59:22;101108.13;;;1.85;71.68
72892;BME280;61032;50.782;6.818;2023-03-03T02:00:26;101104.84;;;1.83;71.24
72892;BME280;61032;50.782;6.818;2023-03-03T02:01:28;101106.56;;;1.94;71.86
72892;BME280;61032;50.782;6.818;2023-03-03T02:02:30;101107.28;;;2.17;71.43
72892;BME280;61032;50.782;6.818;2023-03-03T02:03:32;101102.13;;;2.15;70.53
72892;BME280;61032;50.782;6.818;2023-03-03T02:04:34;101106.88;;;1.98;70.10
72892;BME280;61032;50.782;6.818;2023-03-03T02:05:35;101106.56;;;1.94;70.99
72892;BME280;61032;50.782;6.818;2023-03-03T02:06:39;101110.41;;;1.98;70.77
72892;BME280;61032;50.782;6.818;2023-03-03T02:07:40;101108.56;;;2.04;71.45
72892;BME280;61032;50.782;6.818;2023-03-03T02:08:50;101115.34;;;2.06;70.53
72892;BME280;61032;50.782;6.818;2023-03-03T02:11:02;101102.78;;;1.95;70.94
72892;BME280;61032;50.782;6.818;2023-03-03T02:12:10;101106.56;;;1.94;70.29
72892;BME280;61032;50.782;6.818;2023-03-03T02:13:11;101104.66;;;1.95;70.29
72892;BME280;61032;50.782;6.818;2023-03-03T02:14:12;101098.81;;;1.76;69.98
72892;BME280;61032;50.782;6.818;2023-03-03T02:15:32;101094.72;;;1.73;70.03
72892;BME280;61032;50.782;6.818;2023-03-03T02:16:35;101101.47;;;1.71;70.05
72892;BME280;61032;50.782;6.818;2023-03-03T02:17:35;101106.28;;;1.64;70.10
72892;BME280;61032;50.782;6.818;2023-03-03T02:18:35;101100.06;;;1.68;70.73
72892;BME280;61032;50.782;6.818;2023-03-03T02:19:44;101107.38;;;1.68;70.50
72892;BME280;61032;50.782;6.818;2023-03-03T02:21:54;101106.63;;;1.72;71.50
72892;BME280;61032;50.782;6.818;2023-03-03T02:23:00;101108.47;;;1.67;71.72
72892;BME280;61032;50.782;6.818;2023-03-03T02:25:07;101104.22;;;1.76;71.72
72892;BME280;61032;50.782;6.818;2023-03-03T02:26:18;101110.22;;;1.78;71.20
72892;BME280;61032;50.782;6.818;2023-03-03T02:27:21;101113.19;;;1.77;71.32
72892;BME280;61032;50.782;6.818;2023-03-03T02:28:27;101114.81;;;1.78;71.56
72892;BME280;61032;50.782;6.818;2023-03-03T02:29:28;101109.69;;;1.81;70.75
72892;BME280;61032;50.782;6.818;2023-03-03T02:30:28;101113.00;;;1.88;71.25
72892;BME280;61032;50.782;6.818;2023-03-03T02:31:30;101127.69;;;1.92;71.20
72892;BME280;61032;50.782;6.818;2023-03-03T02:32:30;101127.16;;;1.95;69.95
72892;BME280;61032;50.782;6.818;2023-03-03T02:33:31;101125.22;;;1.91;70.84
72892;BME280;61032;50.782;6.818;2023-03-03T02:34:49;101130.81;;;1.79;70.20
72892;BME280;61032;50.782;6.818;2023-03-03T02:35:50;101128.41;;;1.83;70.79
72892;BME280;61032;50.782;6.818;2023-03-03T02:36:51;101129.44;;;1.77;70.69
72892;BME280;61032;50.782;6.818;2023-03-03T02:37:51;101125.34;;;1.74;70.72
72892;BME280;61032;50.782;6.818;2023-03-03T02:40:05;101119.25;;;1.89;70.35
72892;BME280;61032;50.782;6.818;2023-03-03T02:41:11;101118.41;;;1.83;69.91
72892;BME280;61032;50.782;6.818;2023-03-03T02:42:25;101123.81;;;1.83;70.64
72892;BME280;61032;50.782;6.818;2023-03-03T02:43:54;101124.47;;;1.95;70.79
72892;BME280;61032;50.782;6.818;2023-03-03T02:44:56;101125.72;;;1.88;70.49
72892;BME280;61032;50.782;6.818;2023-03-03T02:45:56;101128.44;;;1.88;71.16
72892;BME280;61032;50.782;6.818;2023-03-03T02:46:57;101127.09;;;1.85;70.50
72892;BME280;61032;50.782;6.818;2023-03-03T02:47:58;101129.50;;;1.82;70.72
72892;BME280;61032;50.782;6.818;2023-03-03T02:48:58;101132.78;;;1.89;71.08
72892;BME280;61032;50.782;6.818;2023-03-03T02:49:58;101128.81;;;1.96;71.55
72892;BME280;61032;50.782;6.818;2023-03-03T02:50:59;101122.94;;;2.10;70.88
72892;BME280;61032;50.782;6.818;2023-03-03T02:52:00;101128.97;;;2.17;70.62
72892;BME280;61032;50.782;6.818;2023-03-03T02:53:01;101122.03;;;2.31;70.52
72892;BME280;61032;50.782;6.818;2023-03-03T02:54:02;101130.22;;;2.36;70.00
72892;BME280;61032;50.782;6.818;2023-03-03T02:55:03;101116.88;;;2.29;69.38
72892;BME280;61032;50.782;6.818;2023-03-03T02:56:03;101120.88;;;2.22;69.20
72892;BME280;61032;50.782;6.818;2023-03-03T02:57:04;101130.06;;;2.16;70.05
72892;BME280;61032;50.782;6.818;2023-03-03T02:58:05;101123.25;;;2.13;69.92
72892;BME280;61032;50.782;6.818;2023-03-03T02:59:05;101124.69;;;2.21;70.66
72892;BME280;61032;50.782;6.818;2023-03-03T03:00:07;101133.94;;;2.25;70.91
72892;BME280;61032;50.782;6.818;2023-03-03T03:01:07;101121.56;;;2.39;70.82
72892;BME280;61032;50.782;6.818;2023-03-03T03:02:07;101128.97;;;2.49;70.83
72892;BME280;61032;50.782;6.818;2023-03-03T03:03:08;101126.00;;;2.55;70.56
72892;BME280;61032;50.782;6.818;2023-03-03T03:04:11;101122.50;;;2.60;70.32
72892;BME280;61032;50.782;6.818;2023-03-03T03:05:12;101123.94;;;2.72;70.34
72892;BME280;61032;50.782;6.818;2023-03-03T03:06:12;101122.91;;;2.79;69.57
72892;BME280;61032;50.782;6.818;2023-03-03T03:07:13;101128.28;;;2.73;70.46
72892;BME280;61032;50.782;6.818;2023-03-03T03:08:13;101134.31;;;2.81;69.77
72892;BME280;61032;50.782;6.818;2023-03-03T03:09:14;101134.88;;;2.83;69.78
72892;BME280;61032;50.782;6.818;2023-03-03T03:10:15;101136.00;;;2.92;69.85
72892;BME280;61032;50.782;6.818;2023-03-03T03:11:15;101138.19;;;2.90;70.09
72892;BME280;61032;50.782;6.818;2023-03-03T03:12:15;101133.88;;;2.99;69.90
72892;BME280;61032;50.782;6.818;2023-03-03T03:13:18;101145.84;;;3.03;70.06
72892;BME280;61032;50.782;6.818;2023-03-03T03:14:18;101139.84;;;3.01;69.73
72892;BME280;61032;50.782;6.818;2023-03-03T03:15:19;101151.28;;;3.03;69.66
72892;BME280;61032;50.782;6.818;2023-03-03T03:16:19;101143.16;;;3.08;69.98
72892;BME280;61032;50.782;6.818;2023-03-03T03:17:19;101145.03;;;3.02;70.21
72892;BME280;61032;50.782;6.818;2023-03-03T03:18:20;101144.94;;;2.92;70.57
72892;BME280;61032;50.782;6.818;2023-03-03T03:19:20;101151.53;;;3.01;71.22
72892;BME280;61032;50.782;6.818;2023-03-03T03:20:21;101152.66;;;3.05;70.84
72892;BME280;61032;50.782;6.818;2023-03-03T03:21:21;101151.31;;;3.08;70.79
72892;BME280;61032;50.782;6.818;2023-03-03T03:22:21;101150.69;;;2.96;70.62
72892;BME280;61032;50.782;6.818;2023-03-03T03:23:21;101154.53;;;3.05;70.91
72892;BME280;61032;50.782;6.818;2023-03-03T03:24:22;101149.16;;;3.10;71.18
72892;BME280;61032;50.782;6.818;2023-03-03T03:25:22;101151.84;;;3.15;71.22
72892;BME280;61032;50.782;6.818;2023-03-03T03:26:23;101159.75;;;3.17;70.69
72892;BME280;61032;50.782;6.818;2023-03-03T03:27:23;101152.44;;;3.22;70.72
72892;BME280;61032;50.782;6.818;2023-03-03T03:28:24;101156.47;;;3.15;71.16
72892;BME280;61032;50.782;6.818;2023-03-03T03:29:24;101158.41;;;3.19;71.53
72892;BME280;61032;50.782;6.818;2023-03-03T03:30:25;101160.56;;;3.17;70.93
72892;BME280;61032;50.782;6.818;2023-03-03T03:31:25;101160.81;;;3.10;71.85
72892;BME280;61032;50.782;6.818;2023-03-03T03:32:26;101155.13;;;3.17;71.30
72892;BME280;61032;50.782;6.818;2023-03-03T03:33:26;101156.00;;;3.28;71.20
72892;BME280;61032;50.782;6.818;2023-03-03T03:34:29;101147.03;;;3.27;71.06
72892;BME280;61032;50.782;6.818;2023-03-03T03:35:32;101148.41;;;3.30;71.15
72892;BME280;61032;50.782;6.818;2023-03-03T03:36:32;101149.75;;;3.27;71.09
72892;BME280;61032;50.782;6.818;2023-03-03T03:37:33;101152.44;;;3.22;71.16
72892;BME280;61032;50.782;6.818;2023-03-03T03:38:34;101148.66;;;3.23;71.45
72892;BME280;61032;50.782;6.818;2023-03-03T03:39:35;101140.22;;;3.25;71.60
72892;BME280;61032;50.782;6.818;2023-03-03T03:40:36;101148.97;;;3.32;71.45
72892;BME280;61032;50.782;6.818;2023-03-03T03:41:37;101142.19;;;3.39;71.30
72892;BME280;61032;50.782;6.818;2023-03-03T03:42:37;101148.19;;;3.47;70.59
72892;BME280;61032;50.782;6.818;2023-03-03T03:43:38;101150.38;;;3.44;70.99
72892;BME280;61032;50.782;6.818;2023-03-03T03:44:38;101152.25;;;3.44;70.58
72892;BME280;61032;50.782;6.818;2023-03-03T03:45:41;101152.22;;;3.39;71.00
72892;BME280;61032;50.782;6.818;2023-03-03T03:46:42;101147.34;;;3.41;71.00
72892;BME280;61032;50.782;6.818;2023-03-03T03:47:42;101154.75;;;3.51;70.76
72892;BME280;61032;50.782;6.818;2023-03-03T03:48:42;101153.09;;;3.50;70.29
72892;BME280;61032;50.782;6.818;2023-03-03T03:49:43;101148.19;;;3.47;70.72
72892;BME280;61032;50.782;6.818;2023-03-03T03:50:43;101149.28;;;3.45;70.46
72892;BME280;61032;50.782;6.818;2023-03-03T03:51:43;101156.31;;;3.41;70.56
72892;BME280;61032;50.782;6.818;2023-03-03T03:52:43;101153.06;;;3.39;70.99
72892;BME280;61032;50.782;6.818;2023-03-03T03:53:44;101157.94;;;3.37;71.25
72892;BME280;61032;50.782;6.818;2023-03-03T03:54:44;101162.25;;;3.33;71.56
72892;BME280;61032;50.782;6.818;2023-03-03T03:55:45;101153.56;;;3.36;71.55
72892;BME280;61032;50.782;6.818;2023-03-03T03:56:45;101164.25;;;3.53;70.74
72892;BME280;61032;50.782;6.818;2023-03-03T03:57:46;101163.97;;;3.50;70.43
72892;BME280;61032;50.782;6.818;2023-03-03T03:58:46;101162.88;;;3.56;70.17
72892;BME280;61032;50.782;6.818;2023-03-03T03:59:48;101159.63;;;3.54;70.84
72892;BME280;61032;50.782;6.818;2023-03-03T04:00:49;101163.44;;;3.53;70.38
72892;BME280;61032;50.782;6.818;2023-03-03T04:01:49;101167.25;;;3.57;70.27
72892;BME280;61032;50.782;6.818;2023-03-03T04:02:50;101166.16;;;3.53;70.52
72892;BME280;61032;50.782;6.818;2023-03-03T04:03:51;101167.25;;;3.52;70.33
72892;BME280;61032;50.782;6.818;2023-03-03T04:04:51;101170.50;;;3.54;70.55
72892;BME280;61032;50.782;6.818;2023-03-03T04:05:52;101177.53;;;3.44;70.67
72892;BME280;61032;50.782;6.818;2023-03-03T04:06:54;101176.47;;;3.51;70.82
72892;BME280;61032;50.782;6.818;2023-03-03T04:07:54;101176.78;;;3.64;70.44
72892;BME280;61032;50.782;6.818;2023-03-03T04:08:54;101178.66;;;3.59;70.59
72892;BME280;61032;50.782;6.818;2023-03-03T04:09:55;101174.84;;;3.50;70.87
72892;BME280;61032;50.782;6.818;2023-03-03T04:10:55;101182.47;;;3.58;70.93
72892;BME280;61032;50.782;6.818;2023-03-03T04:11:55;101172.69;;;3.57;70.55
72892;BME280;61032;50.782;6.818;2023-03-03T04:12:56;101179.47;;;3.59;70.50
72892;BME280;61032;50.782;6.818;2023-03-03T04:13:56;101175.13;;;3.53;70.64
72892;BME280;61032;50.782;6.818;2023-03-03T04:14:56;101172.94;;;3.50;70.79
72892;BME280;61032;50.782;6.818;2023-03-03T04:15:57;101177.53;;;3.44;70.73
72892;BME280;61032;50.782;6.818;2023-03-03T04:16:58;101174.03;;;3.49;70.85
72892;BME280;61032;50.782;6.818;2023-03-03T04:17:58;101168.59;;;3.49;70.91
72892;BME280;61032;50.782;6.818;2023-03-03T04:18:58;101179.47;;;3.49;70.94
72892;BME280;61032;50.782;6.818;2023-03-03T04:19:59;101170.47;;;3.43;71.15
72892;BME280;61032;50.782;6.818;2023-03-03T04:20:59;101177.00;;;3.48;70.89
72892;BME280;61032;50.782;6.818;2023-03-03T04:22:00;101177.31;;;3.51;70.67
72892;BME280;61032;50.782;6.818;2023-03-03T04:23:00;101176.47;;;3.51;70.86
72892;BME280;61032;50.782;6.818;2023-03-03T04:24:00;101184.09;;;3.59;70.55
72892;BME280;61032;50.782;6.818;2023-03-03T04:25:04;101182.47;;;3.58;70.62
72892;BME280;61032;50.782;6.818;2023-03-03T04:26:06;101175.66;;;3.55;70.70
72892;BME280;61032;50.782;6.818;2023-03-03T04:27:06;101169.97;;;3.52;70.29
72892;BME280;61032;50.782;6.818;2023-03-03T04:28:08;101175.38;;;3.47;70.70
72892;BME280;61032;50.782;6.818;2023-03-03T04:29:09;101177.56;;;3.50;70.73
72892;BME280;61032;50.782;6.818;2023-03-03T04:30:11;101173.75;;;3.51;71.13
72892;BME280;61032;50.782;6.818;2023-03-03T04:31:12;101173.22;;;3.49;71.11
72892;BME280;61032;50.782;6.818;2023-03-03T04:32:12;101172.41;;;3.53;70.79
72892;BME280;61032;50.782;6.818;2023-03-03T04:33:13;101168.59;;;3.59;70.72
72892;BME280;61032;50.782;6.818;2023-03-03T04:34:13;101171.94;;;3.71;70.47
72892;BME280;61032;50.782;6.818;2023-03-03T04:35:13;101169.44;;;3.65;70.18
72892;BME280;61032;50.782;6.818;2023-03-03T04:36:13;101169.44;;;3.60;70.22
72892;BME280;61032;50.782;6.818;2023-03-03T04:37:14;101163.72;;;3.61;70.06
72892;BME280;61032;50.782;6.818;2023-03-03T04:38:14;101169.97;;;3.62;70.27
72892;BME280;61032;50.782;6.818;2023-03-03T04:39:14;101169.69;;;3.53;69.86
72892;BME280;61032;50.782;6.818;2023-03-03T04:40:15;101173.22;;;3.49;70.78
72892;BME280;61032;50.782;6.818;2023-03-03T04:41:17;101167.50;;;3.55;70.88
72892;BME280;61032;50.782;6.818;2023-03-03T04:42:17;101170.22;;;3.55;70.53
72892;BME280;61032;50.782;6.818;2023-03-03T04:43:18;101171.88;;;3.51;70.71
72892;BME280;61032;50.782;6.818;2023-03-03T04:44:18;101176.22;;;3.52;70.77
72892;BME280;61032;50.782;6.818;2023-03-03T04:45:18;101174.03;;;3.54;70.26
72892;BME280;61032;50.782;6.818;2023-03-03T04:46:19;101169.69;;;3.58;70.33
72892;BME280;61032;50.782;6.818;2023-03-03T04:47:19;101170.78;;;3.52;70.31
72892;BME280;61032;50.782;6.818;2023-03-03T04:48:19;101181.41;;;3.64;70.05
72892;BME280;61032;50.782;6.818;2023-03-03T04:49:20;101173.22;;;3.59;70.36
72892;BME280;61032;50.782;6.818;2023-03-03T04:50:20;101176.75;;;3.59;70.31
72892;BME280;61032;50.782;6.818;2023-03-03T04:51:20;101171.06;;;3.61;70.25
72892;BME280;61032;50.782;6.818;2023-03-03T04:52:20;101173.19;;;3.54;70.31
72892;BME280;61032;50.782;6.818;2023-03-03T04:53:21;101168.88;;;3.53;70.25
72892;BME280;61032;50.782;6.818;2023-03-03T04:54:21;101163.72;;;3.51;70.58
72892;BME280;61032;50.782;6.818;2023-03-03T04:55:22;101175.09;;;3.43;70.95
72892;BME280;61032;50.782;6.818;2023-03-03T04:56:22;101169.31;;;3.29;71.11
72892;BME280;61032;50.782;6.818;2023-03-03T04:57:22;101167.13;;;3.26;71.63
72892;BME280;61032;50.782;6.818;2023-03-03T04:58:23;101179.13;;;3.30;71.63
72892;BME280;61032;50.782;6.818;2023-03-03T04:59:23;101173.41;;;3.37;72.00
72892;BME280;61032;50.782;6.818;2023-03-03T05:00:23;101188.38;;;3.39;71.72
72892;BME280;61032;50.782;6.818;2023-03-03T05:01:24;101185.91;;;3.38;71.41
72892;BME280;61032;50.782;6.818;2023-03-03T05:02:24;101188.94;;;3.41;71.23
72892;BME280;61032;50.782;6.818;2023-03-03T05:03:24;101188.13;;;3.41;71.05
72892;BME280;61032;50.782;6.818;2023-03-03T05:04:26;101192.47;;;3.42;71.40
72892;BME280;61032;50.782;6.818;2023-03-03T05:05:26;101193.81;;;3.39;71.01
72892;BME280;61032;50.782;6.818;2023-03-03T05:06:26;101183.22;;;3.38;71.88
72892;BME280;61032;50.782;6.818;2023-03-03T05:07:27;101184.88;;;3.44;71.59
72892;BME280;61032;50.782;6.818;2023-03-03T05:08:27;101192.78;;;3.51;71.26
72892;BME280;61032;50.782;6.818;2023-03-03T05:09:27;101179.75;;;3.53;71.21
72892;BME280;61032;50.782;6.818;2023-03-03T05:10:27;101189.75;;;3.42;71.21
72892;BME280;61032;50.782;6.818;2023-03-03T05:11:28;101189.00;;;3.52;71.42
72892;BME280;61032;50.782;6.818;2023-03-03T05:12:29;101196.59;;;3.50;71.29
72892;BME280;61032;50.782;6.818;2023-03-03T05:13:29;101202.84;;;3.50;71.13
72892;BME280;61032;50.782;6.818;2023-03-03T05:14:30;101204.19;;;3.48;71.63
72892;BME280;61032;50.782;6.818;2023-03-03T05:15:31;101206.34;;;3.45;71.60
72892;BME280;61032;50.782;6.818;2023-03-03T05:16:31;101210.16;;;3.55;70.91
72892;BME280;61032;50.782;6.818;2023-03-03T05:17:32;101205.84;;;3.59;70.88
72892;BME280;61032;50.782;6.818;2023-03-03T05:18:32;101202.31;;;3.53;70.96
72892;BME280;61032;50.782;6.818;2023-03-03T05:19:32;101203.94;;;3.49;70.98
72892;BME280;61032;50.782;6.818;2023-03-03T05:20:34;101206.38;;;3.51;70.94
72892;BME280;61032;50.782;6.818;2023-03-03T05:21:34;101208.28;;;3.50;70.90
72892;BME280;61032;50.782;6.818;2023-03-03T05:22:34;101209.88;;;3.46;71.31
72892;BME280;61032;50.782;6.818;2023-03-03T05:23:35;101207.97;;;3.47;71.49
72892;BME280;61032;50.782;6.818;2023-03-03T05:24:35;101211.00;;;3.55;71.06
72892;BME280;61032;50.782;6.818;2023-03-03T05:25:35;101211.56;;;3.52;71.09
72892;BME280;61032;50.782;6.818;2023-03-03T05:26:36;101210.19;;;3.60;71.27
72892;BME280;61032;50.782;6.818;2023-03-03T05:27:36;101208.84;;;3.62;71.01
72892;BME280;61032;50.782;6.818;2023-03-03T05:28:36;101207.53;;;3.70;70.92
72892;BME280;61032;50.782;6.818;2023-03-03T05:29:36;101205.91;;;3.79;70.14
72892;BME280;61032;50.782;6.818;2023-03-03T05:30:37;101212.69;;;3.76;70.39
72892;BME280;61032;50.782;6.818;2023-03-03T05:31:37;101210.25;;;3.75;70.46
72892;BME280;61032;50.782;6.818;2023-03-03T05:32:38;101204.31;;;3.83;70.02
72892;BME280;61032;50.782;6.818;2023-03-03T05:33:38;101211.91;;;3.81;69.46
72892;BME280;61032;50.782;6.818;2023-03-03T05:34:38;101208.63;;;3.74;69.61
72892;BME280;61032;50.782;6.818;2023-03-03T05:35:39;101209.44;;;3.74;70.17
72892;BME280;61032;50.782;6.818;2023-03-03T05:36:39;101213.25;;;3.78;69.88
72892;BME280;61032;50.782;6.818;2023-03-03T05:37:40;101218.97;;;3.77;70.09